EKOD/ODE METAR and TAF weather

Enter ICAO airport designator
Station Type Date Time Source
EKOD METAR 2022/09/26 08:20 UTC NOAA

EKOD 260820Z 19013KT 9999 -RA FEW009 SCT017 BKN021 11/10 Q0997


Station Type Date Time Source
EKOD Decoded METAR 2022/09/26 08:20 UTC NOAA

Odense / Beldringe, Denmark (EKOD) 55-29N 010-20E 17M
Sep 26, 2022 - 04:20 AM EDT / 2022.09.26 0820 UTC
Wind: from the S (190 degrees) at 15 MPH (13 KT):0
Visibility: greater than 7 mile(s):0
Sky conditions: mostly cloudy
Weather: light rain
Temperature: 51 F (11 C)
Dew Point: 50 F (10 C)
Relative Humidity: 93%
Pressure (altimeter): 29.44 in. Hg (0997 hPa)
ob: EKOD 260820Z 19013KT 9999 -RA FEW009 SCT017 BKN021 11/10 Q0997
cycle: 8

Station Type Date Time Source
EKOD TAF 2015/04/20 17:00 UTC NOAA

TAF
AMD EKOD 201701Z 2017/2018 CNL

Example: see airport list